createdAt,value
2022-10-01T00:02:07.207Z,13.95
2022-10-01T00:04:37.369Z,15.50
2022-10-01T00:07:09.520Z,15.63
2022-10-01T00:09:37.096Z,14.38
2022-10-01T00:12:04.237Z,16.75
2022-10-01T00:14:31.340Z,17.33
2022-10-01T00:16:58.357Z,15.63
2022-10-01T00:19:25.356Z,18.60
2022-10-01T00:21:52.302Z,16.30
2022-10-01T00:24:19.390Z,17.23
2022-10-01T00:26:47.713Z,18.05
2022-10-01T00:29:15.409Z,14.73
2022-10-01T00:31:43.683Z,16.33
2022-10-01T00:34:15.216Z,16.20
2022-10-01T00:36:42.483Z,18.13
2022-10-01T00:39:12.023Z,17.38
2022-10-01T00:41:39.582Z,15.02
2022-10-01T00:44:33.357Z,15.63
2022-10-01T00:47:10.656Z,14.85
2022-10-01T00:49:39.908Z,14.07
2022-10-01T00:52:13.864Z,13.70
2022-10-01T00:54:53.988Z,13.48
2022-10-01T00:57:25.296Z,13.45
2022-10-01T00:59:57.052Z,13.63
2022-10-01T01:02:24.129Z,13.13
2022-10-01T01:04:51.250Z,12.95
2022-10-01T01:07:18.995Z,12.45
2022-10-01T01:09:49.722Z,10.82
2022-10-01T01:12:54.013Z,11.75
2022-10-01T01:15:41.761Z,11.05
2022-10-01T01:18:21.920Z,11.57
2022-10-01T01:21:16.327Z,11.10
2022-10-01T01:24:30.280Z,12.05
2022-10-01T01:27:21.788Z,12.70
2022-10-01T01:30:15.055Z,12.85
2022-10-01T01:33:11.945Z,12.65
2022-10-01T01:35:48.560Z,14.00
2022-10-01T01:38:24.453Z,13.13
2022-10-01T01:40:55.903Z,13.98
2022-10-01T01:43:38.147Z,14.95
2022-10-01T01:46:10.222Z,14.68
2022-10-01T01:48:41.798Z,14.25
2022-10-01T01:51:25.287Z,13.82
2022-10-01T01:53:52.315Z,15.18
2022-10-01T01:56:19.531Z,14.85
2022-10-01T01:58:47.069Z,16.85
2022-10-01T02:01:40.516Z,17.70
2022-10-01T02:04:33.731Z,16.30
2022-10-01T02:07:25.184Z,16.95
2022-10-01T02:10:44.763Z,17.27
2022-10-01T02:13:29.859Z,18.80
2022-10-01T02:16:10.147Z,18.20
2022-10-01T02:18:52.962Z,17.05
2022-10-01T02:21:39.959Z,18.63
2022-10-01T02:24:19.308Z,17.52
2022-10-01T02:26:49.920Z,17.63
2022-10-01T02:29:20.991Z,17.48
2022-10-01T02:31:53.430Z,17.48
2022-10-01T02:34:24.874Z,17.83
2022-10-01T02:36:54.269Z,18.13
2022-10-01T02:39:23.896Z,17.48
2022-10-01T02:41:53.219Z,15.40
2022-10-01T02:44:38.180Z,15.73
2022-10-01T02:47:25.889Z,15.65
2022-10-01T02:49:53.770Z,16.40
2022-10-01T02:52:34.349Z,15.40
2022-10-01T02:55:11.191Z,16.05
2022-10-01T02:57:38.630Z,16.10
2022-10-01T03:00:11.390Z,16.65
2022-10-01T03:02:38.502Z,16.42
2022-10-01T03:05:06.753Z,17.02
2022-10-01T03:07:35.833Z,16.10
2022-10-01T03:10:08.323Z,17.45
2022-10-01T03:12:36.185Z,14.43
2022-10-01T03:15:04.527Z,14.43
2022-10-01T03:17:31.582Z,15.80
2022-10-01T03:19:58.548Z,14.40
2022-10-01T03:22:25.543Z,15.93
2022-10-01T03:24:53.746Z,14.63
2022-10-01T03:27:22.184Z,15.38
2022-10-01T03:29:49.667Z,15.23
2022-10-01T03:32:17.488Z,14.75
2022-10-01T03:34:45.218Z,15.27
2022-10-01T03:37:12.367Z,15.88
2022-10-01T03:39:39.887Z,15.63
2022-10-01T03:42:07.154Z,16.80
2022-10-01T03:44:34.132Z,16.92
2022-10-01T03:47:01.091Z,17.08
2022-10-01T03:49:28.052Z,17.58
2022-10-01T03:51:55.290Z,20.00
2022-10-01T03:54:22.570Z,18.75
2022-10-01T03:56:49.880Z,17.98
2022-10-01T03:59:16.945Z,18.42
2022-10-01T04:01:44.010Z,17.98
2022-10-01T04:04:11.278Z,17.52
2022-10-01T04:06:38.428Z,19.45
2022-10-01T04:09:05.538Z,18.15
2022-10-01T04:11:32.896Z,18.58
2022-10-01T04:14:00.044Z,18.42
2022-10-01T04:16:27.480Z,17.95
2022-10-01T04:18:55.279Z,18.52
2022-10-01T04:21:22.346Z,19.00
2022-10-01T04:23:50.292Z,18.15
2022-10-01T04:26:19.042Z,17.33
2022-10-01T04:28:46.960Z,18.52
2022-10-01T04:31:27.110Z,16.92
2022-10-01T04:33:56.757Z,18.13
2022-10-01T04:36:25.470Z,18.35
2022-10-01T04:38:57.931Z,18.50
2022-10-01T04:43:53.627Z,17.45
2022-10-01T04:46:20.743Z,17.75
2022-10-01T04:48:49.343Z,17.08
2022-10-01T04:51:17.609Z,17.23
2022-10-01T04:53:44.608Z,16.83
2022-10-01T04:56:11.791Z,17.13
2022-10-01T04:58:38.830Z,16.70
2022-10-01T05:01:05.993Z,16.35
2022-10-01T05:03:33.183Z,17.17
2022-10-01T05:06:00.435Z,17.45
2022-10-01T05:08:27.462Z,16.00
2022-10-01T05:10:54.412Z,16.23
2022-10-01T05:13:21.407Z,16.20
2022-10-01T05:15:52.338Z,15.68
2022-10-01T05:18:19.636Z,16.25
2022-10-01T05:20:46.868Z,16.50
2022-10-01T05:23:13.925Z,15.48
2022-10-01T05:25:41.075Z,16.95
2022-10-01T05:28:08.082Z,18.30
2022-10-01T05:30:35.182Z,17.17
2022-10-01T05:33:04.590Z,16.65
2022-10-01T05:35:32.043Z,15.95
2022-10-01T05:38:01.700Z,16.95
2022-10-01T05:40:30.032Z,17.70
2022-10-01T05:42:59.826Z,16.55
2022-10-01T05:45:29.352Z,16.63
2022-10-01T05:48:08.450Z,17.63
2022-10-01T05:50:40.622Z,17.02
2022-10-01T05:53:10.419Z,16.90
2022-10-01T05:55:37.720Z,17.75
2022-10-01T05:58:10.679Z,14.57
2022-10-01T06:00:40.625Z,18.00
2022-10-01T06:03:08.691Z,17.73
2022-10-01T06:05:36.702Z,17.38
2022-10-01T06:08:09.747Z,16.30
2022-10-01T06:10:37.176Z,17.58
2022-10-01T06:13:07.631Z,17.20
2022-10-01T06:15:38.225Z,16.35
2022-10-01T06:18:10.015Z,17.40
2022-10-01T06:20:38.548Z,17.77
2022-10-01T06:23:11.255Z,16.08
2022-10-01T06:25:43.555Z,16.92
2022-10-01T06:28:14.906Z,18.10
2022-10-01T06:30:43.695Z,18.20
2022-10-01T06:33:14.456Z,16.27
2022-10-01T06:35:44.817Z,17.70
2022-10-01T06:38:12.008Z,16.08
2022-10-01T06:40:39.639Z,17.25
2022-10-01T06:43:08.404Z,17.38
2022-10-01T06:45:38.963Z,16.55
2022-10-01T06:48:06.270Z,16.40
2022-10-01T06:50:34.930Z,15.40
2022-10-01T06:53:02.160Z,15.68
2022-10-01T06:55:33.196Z,17.00
2022-10-01T06:58:06.793Z,18.17
2022-10-01T07:00:36.826Z,16.30
2022-10-01T07:03:10.914Z,17.48
2022-10-01T07:05:40.655Z,16.33
2022-10-01T07:08:08.675Z,15.43
2022-10-01T07:10:37.510Z,16.02
2022-10-01T07:13:14.272Z,17.65
2022-10-01T07:15:41.561Z,16.15
2022-10-01T07:18:09.761Z,16.13
2022-10-01T07:20:39.951Z,17.20
2022-10-01T07:23:11.612Z,16.90
2022-10-01T07:25:40.722Z,15.60
2022-10-01T07:28:16.823Z,16.42
2022-10-01T07:31:06.754Z,16.30
2022-10-01T07:33:34.055Z,14.82
2022-10-01T07:36:06.551Z,13.82
2022-10-01T07:38:34.546Z,13.95
2022-10-01T07:41:03.377Z,14.52
2022-10-01T07:43:33.056Z,13.70
2022-10-01T07:46:02.080Z,13.02
2022-10-01T07:48:29.235Z,13.13
2022-10-01T07:50:57.853Z,13.25
2022-10-01T07:53:25.785Z,13.27
2022-10-01T07:55:52.800Z,12.93
2022-10-01T07:58:24.270Z,12.93
2022-10-01T08:00:56.306Z,14.10
2022-10-01T08:03:24.824Z,13.18
2022-10-01T08:05:53.770Z,12.48
2022-10-01T08:08:21.622Z,12.23
2022-10-01T08:10:50.207Z,11.55
2022-10-01T08:13:18.475Z,12.60
2022-10-01T08:15:50.659Z,12.90
2022-10-01T08:18:18.053Z,13.95
2022-10-01T08:20:46.023Z,11.45
2022-10-01T08:23:15.509Z,12.90
2022-10-01T08:25:44.187Z,13.60
2022-10-01T08:28:12.589Z,13.30
2022-10-01T08:30:42.697Z,13.07
2022-10-01T08:33:14.334Z,11.55
2022-10-01T08:35:43.666Z,12.60
2022-10-01T08:38:12.767Z,11.48
2022-10-01T08:40:48.342Z,12.50
2022-10-01T08:43:38.465Z,13.00
2022-10-01T08:46:16.686Z,13.38
2022-10-01T08:49:11.554Z,12.15
2022-10-01T08:52:18.243Z,12.30
2022-10-01T08:55:26.629Z,13.35
2022-10-01T08:58:01.043Z,13.93
2022-10-01T09:00:32.043Z,12.52
2022-10-01T09:03:06.693Z,13.32
2022-10-01T09:06:15.573Z,12.13
2022-10-01T09:09:25.544Z,13.55
2022-10-01T09:12:31.302Z,12.07
2022-10-01T09:15:23.847Z,12.90
2022-10-01T09:18:02.096Z,12.57
2022-10-01T09:20:59.429Z,12.65
2022-10-01T09:23:31.021Z,12.18
2022-10-01T09:25:59.995Z,11.85
2022-10-01T09:28:33.782Z,11.75
2022-10-01T09:31:26.677Z,13.25
2022-10-01T09:34:15.182Z,11.85
2022-10-01T09:37:05.608Z,13.02
2022-10-01T09:39:47.075Z,12.35
2022-10-01T09:42:14.284Z,12.18
2022-10-01T09:44:42.828Z,12.60
2022-10-01T09:47:19.359Z,12.55
2022-10-01T09:49:49.209Z,12.27
2022-10-01T09:52:28.251Z,11.00
2022-10-01T09:55:23.162Z,12.07
2022-10-01T09:58:29.469Z,12.70
2022-10-01T10:00:57.517Z,9.90
2022-10-01T10:03:31.211Z,11.68
2022-10-01T10:06:02.367Z,10.45
2022-10-01T10:08:33.792Z,10.88
2022-10-01T10:11:06.122Z,8.82
2022-10-01T10:13:51.023Z,9.75
2022-10-01T10:16:35.301Z,9.20
2022-10-01T10:19:23.521Z,9.10
2022-10-01T10:22:00.621Z,9.20
2022-10-01T10:24:34.650Z,8.73
2022-10-01T10:29:35.751Z,8.45
2022-10-01T10:32:33.884Z,7.90
2022-10-01T10:35:05.218Z,7.75
2022-10-01T10:37:37.065Z,8.35
2022-10-01T10:40:08.295Z,8.25
2022-10-01T10:42:38.769Z,8.52
2022-10-01T10:45:29.722Z,8.32
2022-10-01T10:47:58.077Z,7.38
2022-10-01T10:50:39.917Z,6.35
2022-10-01T10:53:28.640Z,6.03
2022-10-01T10:56:05.927Z,6.28
2022-10-01T10:58:40.345Z,6.38
2022-10-01T11:01:25.930Z,6.97
2022-10-01T11:03:58.064Z,6.90
2022-10-01T11:06:25.473Z,6.45
2022-10-01T11:09:04.946Z,5.45
2022-10-01T11:12:00.913Z,6.25
2022-10-01T11:14:59.629Z,5.50
2022-10-01T11:17:49.262Z,6.15
2022-10-01T11:20:34.193Z,5.88
2022-10-01T11:23:30.247Z,5.70
2022-10-01T11:26:27.290Z,6.30
2022-10-01T11:29:15.179Z,6.07
2022-10-01T11:32:03.150Z,6.10
2022-10-01T11:34:51.890Z,6.40
2022-10-01T11:38:21.723Z,6.50
2022-10-01T11:40:54.763Z,6.35
2022-10-01T11:43:33.194Z,7.77
2022-10-01T11:46:10.064Z,5.93
2022-10-01T11:48:52.168Z,5.13
2022-10-01T11:51:31.995Z,6.10
2022-10-01T11:54:06.945Z,4.43
2022-10-01T11:57:00.463Z,4.60
2022-10-01T11:59:37.943Z,4.50
2022-10-01T12:11:19.039Z,3.83
2022-10-01T12:13:58.563Z,3.90
2022-10-01T12:16:56.476Z,3.75
2022-10-01T12:19:37.010Z,4.20
2022-10-01T12:22:30.038Z,3.78
2022-10-01T12:24:57.738Z,3.30
2022-10-01T12:28:06.575Z,4.50
2022-10-01T12:31:00.962Z,3.20
2022-10-01T12:33:40.264Z,3.22
2022-10-01T12:36:44.734Z,2.97
2022-10-01T12:39:44.119Z,2.70
2022-10-01T12:42:45.281Z,2.45
2022-10-01T12:45:35.759Z,3.20
2022-10-01T12:48:24.630Z,2.30
2022-10-01T12:51:03.027Z,2.08
2022-10-01T12:53:41.976Z,1.77
2022-10-01T12:56:38.336Z,2.10
2022-10-01T12:59:24.409Z,2.47
2022-10-01T13:02:19.846Z,3.90
2022-10-01T13:05:21.121Z,3.10
2022-10-01T13:08:16.948Z,2.95
2022-10-01T13:11:23.189Z,2.90
2022-10-01T13:13:52.949Z,2.22
2022-10-01T13:16:42.318Z,1.98
2022-10-01T13:19:24.959Z,2.60
2022-10-01T13:22:10.519Z,2.40
2022-10-01T13:24:50.424Z,2.40
2022-10-01T13:27:41.257Z,2.22
2022-10-01T13:30:23.029Z,2.03
2022-10-01T13:33:01.367Z,2.13
2022-10-01T13:35:39.695Z,1.83
2022-10-01T13:38:29.415Z,1.08
2022-10-01T13:41:13.985Z,1.30
2022-10-01T13:43:56.255Z,1.33
2022-10-01T13:46:28.454Z,1.00
2022-10-01T13:48:57.287Z,1.00
2022-10-01T13:51:38.166Z,1.23
2022-10-01T13:54:33.532Z,1.27
2022-10-01T13:57:10.269Z,1.77
2022-10-01T13:59:39.063Z,2.50
2022-10-01T14:02:32.050Z,2.05
2022-10-01T14:05:23.259Z,1.58
2022-10-01T14:07:59.039Z,1.00
2022-10-01T14:10:59.844Z,1.50
2022-10-01T14:13:48.171Z,0.77
2022-10-01T14:16:17.309Z,0.65
2022-10-01T14:18:49.558Z,0.50
2022-10-01T14:21:36.940Z,0.35
2022-10-01T14:25:00.945Z,0.70
2022-10-01T14:27:46.839Z,0.55
2022-10-01T14:30:22.852Z,0.45
2022-10-01T14:33:31.354Z,0.40
2022-10-01T14:36:09.074Z,0.40
2022-10-01T14:38:36.468Z,0.30
2022-10-01T14:41:04.808Z,1.10
2022-10-01T14:43:33.359Z,0.65
2022-10-01T14:46:05.432Z,1.23
2022-10-01T14:48:40.411Z,0.50
2022-10-01T14:51:27.630Z,0.40
2022-10-01T14:54:02.513Z,0.45
2022-10-01T14:56:30.460Z,0.40
2022-10-01T14:59:03.367Z,0.40
2022-10-01T15:01:31.149Z,0.55
2022-10-01T15:03:58.572Z,0.30
2022-10-01T15:06:30.001Z,0.30
2022-10-01T15:09:14.890Z,0.20
2022-10-01T15:11:44.668Z,0.40
2022-10-01T15:14:22.851Z,0.50
2022-10-01T15:16:51.210Z,0.30
2022-10-01T15:19:22.985Z,0.47
2022-10-01T15:21:57.076Z,0.20
2022-10-01T15:24:45.015Z,0.52
2022-10-01T15:27:15.646Z,0.20
2022-10-01T15:29:44.304Z,0.30
2022-10-01T15:32:18.979Z,0.20
2022-10-01T15:35:07.316Z,0.20
2022-10-01T15:37:36.068Z,0.38
2022-10-01T15:40:12.430Z,0.20
2022-10-01T15:42:40.573Z,0.13
2022-10-01T15:45:07.889Z,0.22
2022-10-01T15:47:56.736Z,0.13
2022-10-01T15:50:36.527Z,0.50
2022-10-01T15:53:15.272Z,0.20
2022-10-01T15:55:53.336Z,0.20
2022-10-01T15:58:30.432Z,0.30
2022-10-01T16:01:12.425Z,0.30
2022-10-01T16:03:49.829Z,0.47
2022-10-01T16:06:29.897Z,0.40
2022-10-01T16:09:22.501Z,0.20
2022-10-01T16:12:18.589Z,0.25
2022-10-01T16:15:01.741Z,0.30
2022-10-01T16:17:31.209Z,0.30
2022-10-01T16:20:18.749Z,0.10
2022-10-01T16:22:47.088Z,0.30
2022-10-01T16:25:23.754Z,0.20
2022-10-01T16:28:04.403Z,0.38
2022-10-01T16:30:33.942Z,0.20
2022-10-01T16:33:05.995Z,0.30
2022-10-01T16:35:36.001Z,0.30
2022-10-01T16:38:08.241Z,0.40
2022-10-01T16:40:48.049Z,0.30
2022-10-01T16:43:24.322Z,0.30
2022-10-01T16:45:51.975Z,0.30
2022-10-01T16:48:24.571Z,0.30
2022-10-01T16:50:58.919Z,0.30
2022-10-01T16:53:27.349Z,0.35
2022-10-01T16:55:56.409Z,0.38
2022-10-01T16:58:24.815Z,0.38
2022-10-01T17:00:52.376Z,0.40
2022-10-01T17:03:22.522Z,0.50
2022-10-01T17:05:50.075Z,0.30
2022-10-01T17:08:17.452Z,0.30
2022-10-01T17:10:50.783Z,0.50
2022-10-01T17:13:18.288Z,0.47
2022-10-01T17:15:48.520Z,0.50
2022-10-01T17:18:16.319Z,0.85
2022-10-01T17:20:43.784Z,0.50
2022-10-01T17:23:13.880Z,0.50
2022-10-01T17:25:42.412Z,0.77
2022-10-01T17:28:17.354Z,0.75
2022-10-01T17:30:48.039Z,0.45
2022-10-01T17:33:19.365Z,1.13
2022-10-01T17:35:54.716Z,1.00
2022-10-01T17:38:23.099Z,0.60
2022-10-01T17:40:56.501Z,0.98
2022-10-01T17:43:27.516Z,1.20
2022-10-01T17:46:04.176Z,0.70
2022-10-01T17:48:31.611Z,0.98
2022-10-01T17:51:05.658Z,0.68
2022-10-01T17:53:41.363Z,0.77
2022-10-01T17:56:15.171Z,0.50
2022-10-01T17:58:45.703Z,0.40
2022-10-01T18:01:19.572Z,0.55
2022-10-01T18:03:47.231Z,0.30
2022-10-01T18:06:16.083Z,0.20
2022-10-01T18:08:58.719Z,0.30
2022-10-01T18:11:28.415Z,0.47
2022-10-01T18:13:55.902Z,0.30
2022-10-01T18:16:24.606Z,0.30
2022-10-01T18:21:46.210Z,0.20
2022-10-01T18:24:13.367Z,0.30
2022-10-01T18:26:40.346Z,0.35
2022-10-01T18:29:07.294Z,0.40
2022-10-01T18:31:41.621Z,0.30
2022-10-01T18:34:21.267Z,0.28
2022-10-01T18:36:59.687Z,0.30
2022-10-01T18:39:41.197Z,0.30
2022-10-01T18:42:27.854Z,0.40
2022-10-01T18:45:02.266Z,0.65
2022-10-01T18:47:48.165Z,0.40
2022-10-01T18:50:56.714Z,0.57
2022-10-01T18:53:51.462Z,0.30
2022-10-01T18:56:35.383Z,0.50
2022-10-01T19:00:12.669Z,0.40
2022-10-01T19:03:10.479Z,0.30
2022-10-01T19:06:08.650Z,0.20
2022-10-01T19:08:38.287Z,0.30
2022-10-01T19:11:20.034Z,0.52
2022-10-01T19:14:40.785Z,0.77
2022-10-01T19:17:30.965Z,0.43
2022-10-01T19:20:23.088Z,0.82
2022-10-01T19:23:16.881Z,0.60
2022-10-01T19:25:51.239Z,0.57
2022-10-01T19:28:45.101Z,0.55
2022-10-01T19:31:26.981Z,1.33
2022-10-01T19:34:06.195Z,1.08
2022-10-01T19:36:41.941Z,0.88
2022-10-01T19:39:23.404Z,1.17
2022-10-01T19:42:07.032Z,0.73
2022-10-01T19:45:14.909Z,0.57
2022-10-01T19:47:51.013Z,0.57
2022-10-01T19:50:29.809Z,1.67
2022-10-01T19:52:59.351Z,1.00
2022-10-01T19:55:32.928Z,1.25
2022-10-01T19:58:17.062Z,1.38
2022-10-01T20:00:53.512Z,1.45
2022-10-01T20:03:40.294Z,1.70
2022-10-01T20:06:30.427Z,1.55
2022-10-01T20:09:13.258Z,1.80
2022-10-01T20:11:49.710Z,1.73
2022-10-01T20:14:47.756Z,2.13
2022-10-01T20:17:38.671Z,1.30
2022-10-01T20:20:39.748Z,1.15
2022-10-01T20:23:34.474Z,1.80
2022-10-01T20:29:08.553Z,1.70
2022-10-01T20:31:52.975Z,1.83
2022-10-01T20:34:35.238Z,1.73
2022-10-01T20:37:35.221Z,1.95
2022-10-01T20:40:24.876Z,0.80
2022-10-01T20:43:21.536Z,1.10
2022-10-01T20:45:52.071Z,1.00
2022-10-01T20:48:32.315Z,0.95
2022-10-01T20:51:10.684Z,0.70
2022-10-01T20:53:45.430Z,0.73
2022-10-01T20:56:19.256Z,1.10
2022-10-01T20:59:08.132Z,0.77
2022-10-01T21:01:53.267Z,0.73
2022-10-01T21:04:28.080Z,1.00
2022-10-01T21:07:14.376Z,0.95
2022-10-01T21:09:47.119Z,1.02
2022-10-01T21:12:22.062Z,0.82
2022-10-01T21:14:57.204Z,0.82
2022-10-01T21:17:58.490Z,1.80
2022-10-01T21:21:13.285Z,0.85
2022-10-01T21:24:01.339Z,1.05
2022-10-01T21:27:18.798Z,0.90
2022-10-01T21:29:59.876Z,0.88
2022-10-01T21:33:06.380Z,0.90
2022-10-01T21:35:52.559Z,0.95
2022-10-01T21:38:44.764Z,0.65
2022-10-01T21:41:31.770Z,1.10
2022-10-01T21:44:22.547Z,1.70
2022-10-01T21:46:58.092Z,0.85
2022-10-01T21:49:47.656Z,1.10
2022-10-01T21:52:23.795Z,0.90
2022-10-01T21:55:30.085Z,0.60
2022-10-01T21:58:14.473Z,0.40
2022-10-01T22:03:22.365Z,0.85
2022-10-01T22:06:09.898Z,1.45
2022-10-01T22:09:07.421Z,1.33
2022-10-01T22:11:46.352Z,0.93
2022-10-01T22:14:20.410Z,1.48
2022-10-01T22:17:03.426Z,1.85
2022-10-01T22:19:39.332Z,1.75
2022-10-01T22:22:12.917Z,1.77
2022-10-01T22:24:49.386Z,2.22
2022-10-01T22:27:40.118Z,1.92
2022-10-01T22:30:18.296Z,1.88
2022-10-01T22:32:51.093Z,1.92
2022-10-01T22:35:32.837Z,1.00
2022-10-01T22:38:14.798Z,0.68
2022-10-01T22:40:49.979Z,0.73
2022-10-01T22:43:17.259Z,0.60
2022-10-01T22:46:44.538Z,0.77
2022-10-01T22:49:26.651Z,0.37
2022-10-01T22:52:39.895Z,0.52
2022-10-01T22:55:21.686Z,1.85
2022-10-01T22:58:36.423Z,0.40
2022-10-01T23:01:44.378Z,0.40
2022-10-01T23:04:48.641Z,0.77
2022-10-01T23:07:27.108Z,0.68
2022-10-01T23:10:42.222Z,0.30
2022-10-01T23:13:37.978Z,0.30
2022-10-01T23:16:24.967Z,0.60
2022-10-01T23:19:23.546Z,0.40
2022-10-01T23:22:08.068Z,0.17
2022-10-01T23:25:04.890Z,0.32
2022-10-01T23:28:24.691Z,0.35
2022-10-01T23:31:21.636Z,0.52
2022-10-01T23:34:03.502Z,0.38
2022-10-01T23:37:16.171Z,0.40
2022-10-01T23:39:48.053Z,0.57
2022-10-01T23:42:24.851Z,0.40
2022-10-01T23:45:16.977Z,0.30
2022-10-01T23:47:59.505Z,0.55
2022-10-01T23:51:11.306Z,0.90
2022-10-01T23:53:58.168Z,0.50
2022-10-01T23:56:48.983Z,0.43
2022-10-01T23:59:35.622Z,0.45
